sensor_id;sensor_type;location;lat;lon;timestamp;temperature;humidity
78876;DHT22;68253;52.506;5.486;2024-03-23T00:52:06;7.80;72.30
78876;DHT22;68253;52.506;5.486;2024-03-23T00:54:32;7.80;72.30
78876;DHT22;68253;52.506;5.486;2024-03-23T00:56:58;7.80;72.30
78876;DHT22;68253;52.506;5.486;2024-03-23T00:59:25;7.80;72.30
78876;DHT22;68253;52.506;5.486;2024-03-23T01:01:54;7.80;72.40
78876;DHT22;68253;52.506;5.486;2024-03-23T01:04:20;7.80;72.50
78876;DHT22;68253;52.506;5.486;2024-03-23T01:06:47;7.80;72.50
78876;DHT22;68253;52.506;5.486;2024-03-23T01:09:13;7.80;72.60
78876;DHT22;68253;52.506;5.486;2024-03-23T01:11:40;7.70;72.70
78876;DHT22;68253;52.506;5.486;2024-03-23T01:14:06;7.70;72.80
78876;DHT22;68253;52.506;5.486;2024-03-23T01:16:32;7.80;72.90
78876;DHT22;68253;52.506;5.486;2024-03-23T01:18:58;7.80;72.90
78876;DHT22;68253;52.506;5.486;2024-03-23T01:21:24;7.70;72.90
78876;DHT22;68253;52.506;5.486;2024-03-23T01:23:51;7.70;72.90
78876;DHT22;68253;52.506;5.486;2024-03-23T01:26:17;7.60;72.80
78876;DHT22;68253;52.506;5.486;2024-03-23T01:28:43;7.60;72.70
78876;DHT22;68253;52.506;5.486;2024-03-23T01:31:09;7.60;72.70
78876;DHT22;68253;52.506;5.486;2024-03-23T01:33:35;7.60;72.60
78876;DHT22;68253;52.506;5.486;2024-03-23T01:36:02;7.60;72.40
78876;DHT22;68253;52.506;5.486;2024-03-23T01:38:28;7.50;72.30
78876;DHT22;68253;52.506;5.486;2024-03-23T01:40:57;7.50;72.30
78876;DHT22;68253;52.506;5.486;2024-03-23T01:43:24;7.50;72.30
78876;DHT22;68253;52.506;5.486;2024-03-23T01:45:50;7.50;72.50
78876;DHT22;68253;52.506;5.486;2024-03-23T01:48:21;7.50;72.50
78876;DHT22;68253;52.506;5.486;2024-03-23T01:50:48;7.40;72.50
78876;DHT22;68253;52.506;5.486;2024-03-23T01:53:14;7.40;72.50
78876;DHT22;68253;52.506;5.486;2024-03-23T01:55:43;7.40;72.50
78876;DHT22;68253;52.506;5.486;2024-03-23T01:58:10;7.40;72.50
78876;DHT22;68253;52.506;5.486;2024-03-23T02:00:36;7.40;72.50
78876;DHT22;68253;52.506;5.486;2024-03-23T02:03:27;7.30;72.50
78876;DHT22;68253;52.506;5.486;2024-03-23T02:05:54;7.40;72.60
78876;DHT22;68253;52.506;5.486;2024-03-23T02:08:23;7.30;72.50
78876;DHT22;68253;52.506;5.486;2024-03-23T02:10:50;7.30;72.50
78876;DHT22;68253;52.506;5.486;2024-03-23T02:13:18;7.20;72.40
78876;DHT22;68253;52.506;5.486;2024-03-23T02:15:45;7.20;72.50
78876;DHT22;68253;52.506;5.486;2024-03-23T02:18:11;7.20;72.40
78876;DHT22;68253;52.506;5.486;2024-03-23T02:20:38;7.20;72.10
78876;DHT22;68253;52.506;5.486;2024-03-23T02:23:05;7.20;72.10
78876;DHT22;68253;52.506;5.486;2024-03-23T02:25:34;7.20;72.00
78876;DHT22;68253;52.506;5.486;2024-03-23T02:28:00;7.20;71.90
78876;DHT22;68253;52.506;5.486;2024-03-23T02:30:26;7.20;71.60
78876;DHT22;68253;52.506;5.486;2024-03-23T02:32:52;7.20;71.50
78876;DHT22;68253;52.506;5.486;2024-03-23T02:35:19;7.20;71.40
78876;DHT22;68253;52.506;5.486;2024-03-23T02:37:46;7.20;71.40
78876;DHT22;68253;52.506;5.486;2024-03-23T02:40:12;7.20;71.10
78876;DHT22;68253;52.506;5.486;2024-03-23T02:42:38;7.20;71.00
78876;DHT22;68253;52.506;5.486;2024-03-23T02:45:05;7.20;70.80
78876;DHT22;68253;52.506;5.486;2024-03-23T02:47:31;7.20;70.70
78876;DHT22;68253;52.506;5.486;2024-03-23T02:49:57;7.20;70.60
78876;DHT22;68253;52.506;5.486;2024-03-23T02:52:23;7.20;70.20
78876;DHT22;68253;52.506;5.486;2024-03-23T02:54:49;7.20;70.20
78876;DHT22;68253;52.506;5.486;2024-03-23T02:57:15;7.20;70.00
78876;DHT22;68253;52.506;5.486;2024-03-23T02:59:42;7.20;69.90
78876;DHT22;68253;52.506;5.486;2024-03-23T03:02:08;7.20;69.50
78876;DHT22;68253;52.506;5.486;2024-03-23T03:04:34;7.20;69.50
78876;DHT22;68253;52.506;5.486;2024-03-23T03:07:00;7.10;69.60
78876;DHT22;68253;52.506;5.486;2024-03-23T03:09:26;7.10;69.60
78876;DHT22;68253;52.506;5.486;2024-03-23T03:11:52;7.10;69.70
78876;DHT22;68253;52.506;5.486;2024-03-23T03:14:18;7.00;69.60
78876;DHT22;68253;52.506;5.486;2024-03-23T03:16:45;7.00;69.60
78876;DHT22;68253;52.506;5.486;2024-03-23T03:19:11;7.00;69.60
78876;DHT22;68253;52.506;5.486;2024-03-23T03:21:38;7.00;69.70
78876;DHT22;68253;52.506;5.486;2024-03-23T03:24:06;7.00;69.70
78876;DHT22;68253;52.506;5.486;2024-03-23T03:26:32;7.00;69.70
78876;DHT22;68253;52.506;5.486;2024-03-23T03:28:58;7.00;69.40
78876;DHT22;68253;52.506;5.486;2024-03-23T03:31:24;7.00;69.50
78876;DHT22;68253;52.506;5.486;2024-03-23T03:33:50;7.00;69.40
78876;DHT22;68253;52.506;5.486;2024-03-23T03:36:17;7.00;69.50
78876;DHT22;68253;52.506;5.486;2024-03-23T03:38:43;7.00;69.50
78876;DHT22;68253;52.506;5.486;2024-03-23T03:41:09;7.00;69.50
78876;DHT22;68253;52.506;5.486;2024-03-23T03:43:35;6.90;69.30
78876;DHT22;68253;52.506;5.486;2024-03-23T03:46:01;6.90;69.20
78876;DHT22;68253;52.506;5.486;2024-03-23T03:48:28;7.00;69.00
78876;DHT22;68253;52.506;5.486;2024-03-23T03:50:54;6.90;69.10
78876;DHT22;68253;52.506;5.486;2024-03-23T03:53:21;6.90;69.10
78876;DHT22;68253;52.506;5.486;2024-03-23T03:55:47;6.90;69.10
78876;DHT22;68253;52.506;5.486;2024-03-23T03:58:13;6.90;69.10
78876;DHT22;68253;52.506;5.486;2024-03-23T04:00:39;6.90;69.10
78876;DHT22;68253;52.506;5.486;2024-03-23T04:03:06;6.90;69.10
78876;DHT22;68253;52.506;5.486;2024-03-23T04:05:32;6.80;69.00
78876;DHT22;68253;52.506;5.486;2024-03-23T04:07:58;6.90;69.00
78876;DHT22;68253;52.506;5.486;2024-03-23T04:10:24;6.80;69.00
78876;DHT22;68253;52.506;5.486;2024-03-23T04:12:51;6.80;68.90
78876;DHT22;68253;52.506;5.486;2024-03-23T04:15:17;6.80;69.10
78876;DHT22;68253;52.506;5.486;2024-03-23T04:17:43;6.80;69.10
78876;DHT22;68253;52.506;5.486;2024-03-23T04:20:09;6.80;69.10
78876;DHT22;68253;52.506;5.486;2024-03-23T04:22:37;6.80;69.10
78876;DHT22;68253;52.506;5.486;2024-03-23T04:25:03;6.80;69.20
78876;DHT22;68253;52.506;5.486;2024-03-23T04:27:33;6.80;69.30
78876;DHT22;68253;52.506;5.486;2024-03-23T04:29:59;6.80;69.20
78876;DHT22;68253;52.506;5.486;2024-03-23T04:32:30;6.80;69.20
78876;DHT22;68253;52.506;5.486;2024-03-23T04:34:56;6.70;69.30
78876;DHT22;68253;52.506;5.486;2024-03-23T04:37:22;6.80;69.20
78876;DHT22;68253;52.506;5.486;2024-03-23T04:39:48;6.80;69.20
78876;DHT22;68253;52.506;5.486;2024-03-23T04:42:15;6.70;69.10
78876;DHT22;68253;52.506;5.486;2024-03-23T04:44:42;6.80;68.90
78876;DHT22;68253;52.506;5.486;2024-03-23T04:47:08;6.80;68.90
78876;DHT22;68253;52.506;5.486;2024-03-23T04:49:34;6.80;68.80
78876;DHT22;68253;52.506;5.486;2024-03-23T04:52:04;6.90;68.80
78876;DHT22;68253;52.506;5.486;2024-03-23T04:54:31;6.90;68.90
78876;DHT22;68253;52.506;5.486;2024-03-23T04:56:58;7.00;68.70
78876;DHT22;68253;52.506;5.486;2024-03-23T04:59:24;7.00;68.70
78876;DHT22;68253;52.506;5.486;2024-03-23T05:01:50;7.00;68.80
78876;DHT22;68253;52.506;5.486;2024-03-23T05:04:16;7.00;68.70
78876;DHT22;68253;52.506;5.486;2024-03-23T05:06:43;7.00;68.70
78876;DHT22;68253;52.506;5.486;2024-03-23T05:09:09;6.90;68.70
78876;DHT22;68253;52.506;5.486;2024-03-23T05:11:38;6.90;68.70
78876;DHT22;68253;52.506;5.486;2024-03-23T05:14:04;6.90;68.70
78876;DHT22;68253;52.506;5.486;2024-03-23T05:16:30;6.90;69.00
78876;DHT22;68253;52.506;5.486;2024-03-23T05:18:57;6.90;69.00
78876;DHT22;68253;52.506;5.486;2024-03-23T05:21:23;6.90;68.90
78876;DHT22;68253;52.506;5.486;2024-03-23T05:23:49;6.90;68.70
78876;DHT22;68253;52.506;5.486;2024-03-23T05:26:15;6.90;68.80
78876;DHT22;68253;52.506;5.486;2024-03-23T05:28:41;6.90;68.90
78876;DHT22;68253;52.506;5.486;2024-03-23T05:31:07;7.00;68.70
78876;DHT22;68253;52.506;5.486;2024-03-23T05:33:36;7.00;68.50
78876;DHT22;68253;52.506;5.486;2024-03-23T05:36:04;7.00;68.60
78876;DHT22;68253;52.506;5.486;2024-03-23T05:38:30;7.00;68.60
78876;DHT22;68253;52.506;5.486;2024-03-23T05:40:57;7.10;68.60
78876;DHT22;68253;52.506;5.486;2024-03-23T05:43:24;7.10;68.70
78876;DHT22;68253;52.506;5.486;2024-03-23T05:46:03;7.20;68.70
78876;DHT22;68253;52.506;5.486;2024-03-23T05:48:31;7.20;68.70
78876;DHT22;68253;52.506;5.486;2024-03-23T05:50:57;7.20;68.70
78876;DHT22;68253;52.506;5.486;2024-03-23T05:53:24;7.20;68.60
78876;DHT22;68253;52.506;5.486;2024-03-23T05:55:51;7.20;68.60
78876;DHT22;68253;52.506;5.486;2024-03-23T05:58:19;7.20;68.20
78876;DHT22;68253;52.506;5.486;2024-03-23T06:00:46;7.20;68.20
78876;DHT22;68253;52.506;5.486;2024-03-23T06:03:13;7.10;68.40
78876;DHT22;68253;52.506;5.486;2024-03-23T06:05:39;7.10;68.30
78876;DHT22;68253;52.506;5.486;2024-03-23T06:08:05;7.10;68.30
78876;DHT22;68253;52.506;5.486;2024-03-23T06:10:33;7.10;68.30
78876;DHT22;68253;52.506;5.486;2024-03-23T06:12:59;7.00;68.30
78876;DHT22;68253;52.506;5.486;2024-03-23T06:15:25;7.00;68.50
78876;DHT22;68253;52.506;5.486;2024-03-23T06:17:53;7.00;68.70
78876;DHT22;68253;52.506;5.486;2024-03-23T06:20:19;7.00;68.80
78876;DHT22;68253;52.506;5.486;2024-03-23T06:22:45;7.10;69.00
78876;DHT22;68253;52.506;5.486;2024-03-23T06:25:11;7.10;69.10
78876;DHT22;68253;52.506;5.486;2024-03-23T06:27:38;7.20;69.20
78876;DHT22;68253;52.506;5.486;2024-03-23T06:30:05;7.20;69.30
78876;DHT22;68253;52.506;5.486;2024-03-23T06:32:32;7.20;69.40
78876;DHT22;68253;52.506;5.486;2024-03-23T06:34:58;7.00;69.60
78876;DHT22;68253;52.506;5.486;2024-03-23T06:37:24;7.00;70.00
78876;DHT22;68253;52.506;5.486;2024-03-23T06:39:50;7.00;70.20
78876;DHT22;68253;52.506;5.486;2024-03-23T06:42:16;7.00;70.50
78876;DHT22;68253;52.506;5.486;2024-03-23T06:44:43;7.00;70.70
78876;DHT22;68253;52.506;5.486;2024-03-23T06:47:09;7.00;70.90
78876;DHT22;68253;52.506;5.486;2024-03-23T06:49:35;7.00;70.70
78876;DHT22;68253;52.506;5.486;2024-03-23T06:52:02;7.00;70.50
78876;DHT22;68253;52.506;5.486;2024-03-23T06:54:28;7.20;70.40
78876;DHT22;68253;52.506;5.486;2024-03-23T06:56:54;7.20;70.40
78876;DHT22;68253;52.506;5.486;2024-03-23T06:59:20;7.40;69.60
78876;DHT22;68253;52.506;5.486;2024-03-23T07:01:46;7.40;69.60
78876;DHT22;68253;52.506;5.486;2024-03-23T07:04:13;7.50;69.50
78876;DHT22;68253;52.506;5.486;2024-03-23T07:06:43;7.50;69.00
78876;DHT22;68253;52.506;5.486;2024-03-23T07:09:09;7.60;69.00
78876;DHT22;68253;52.506;5.486;2024-03-23T07:11:36;7.50;69.10
78876;DHT22;68253;52.506;5.486;2024-03-23T07:14:02;7.50;69.10
78876;DHT22;68253;52.506;5.486;2024-03-23T07:16:31;7.50;68.70
78876;DHT22;68253;52.506;5.486;2024-03-23T07:18:57;7.50;68.50
78876;DHT22;68253;52.506;5.486;2024-03-23T07:21:24;7.40;67.90
78876;DHT22;68253;52.506;5.486;2024-03-23T07:23:50;7.30;68.10
78876;DHT22;68253;52.506;5.486;2024-03-23T07:26:16;7.20;68.10
78876;DHT22;68253;52.506;5.486;2024-03-23T07:28:43;7.20;68.70
78876;DHT22;68253;52.506;5.486;2024-03-23T07:31:15;7.20;69.10
78876;DHT22;68253;52.506;5.486;2024-03-23T07:33:46;7.20;69.40
78876;DHT22;68253;52.506;5.486;2024-03-23T07:36:12;7.20;69.60
78876;DHT22;68253;52.506;5.486;2024-03-23T07:38:42;7.30;69.30
78876;DHT22;68253;52.506;5.486;2024-03-23T07:41:14;7.40;68.90
78876;DHT22;68253;52.506;5.486;2024-03-23T07:43:41;7.40;68.10
78876;DHT22;68253;52.506;5.486;2024-03-23T07:46:07;7.40;67.60
78876;DHT22;68253;52.506;5.486;2024-03-23T07:48:33;7.40;66.70
78876;DHT22;68253;52.506;5.486;2024-03-23T07:51:03;7.40;66.60
78876;DHT22;68253;52.506;5.486;2024-03-23T07:53:31;7.30;66.80
78876;DHT22;68253;52.506;5.486;2024-03-23T07:55:59;7.30;67.00
78876;DHT22;68253;52.506;5.486;2024-03-23T07:58:26;7.30;67.40
78876;DHT22;68253;52.506;5.486;2024-03-23T08:00:56;7.60;68.90
78876;DHT22;68253;52.506;5.486;2024-03-23T08:03:29;8.40;69.20
78876;DHT22;68253;52.506;5.486;2024-03-23T08:05:55;9.00;67.70
78876;DHT22;68253;52.506;5.486;2024-03-23T08:08:21;9.10;65.80
78876;DHT22;68253;52.506;5.486;2024-03-23T08:10:50;9.20;66.10
78876;DHT22;68253;52.506;5.486;2024-03-23T08:13:17;9.40;65.50
78876;DHT22;68253;52.506;5.486;2024-03-23T08:15:44;9.80;64.90
78876;DHT22;68253;52.506;5.486;2024-03-23T08:18:13;10.20;63.70
78876;DHT22;68253;52.506;5.486;2024-03-23T08:20:41;10.40;62.60
78876;DHT22;68253;52.506;5.486;2024-03-23T08:23:08;10.50;61.80
78876;DHT22;68253;52.506;5.486;2024-03-23T08:25:35;10.60;61.30
78876;DHT22;68253;52.506;5.486;2024-03-23T08:28:01;10.50;60.10
78876;DHT22;68253;52.506;5.486;2024-03-23T08:30:28;10.30;60.50
78876;DHT22;68253;52.506;5.486;2024-03-23T08:32:54;10.10;59.90
78876;DHT22;68253;52.506;5.486;2024-03-23T08:35:20;9.90;60.00
78876;DHT22;68253;52.506;5.486;2024-03-23T08:37:46;9.70;60.60
78876;DHT22;68253;52.506;5.486;2024-03-23T08:40:12;9.60;61.50
78876;DHT22;68253;52.506;5.486;2024-03-23T08:42:38;9.80;61.70
78876;DHT22;68253;52.506;5.486;2024-03-23T08:45:05;10.00;61.00
78876;DHT22;68253;52.506;5.486;2024-03-23T08:47:36;10.00;60.50
78876;DHT22;68253;52.506;5.486;2024-03-23T08:50:03;9.70;59.90
78876;DHT22;68253;52.506;5.486;2024-03-23T08:52:29;9.50;59.40
78876;DHT22;68253;52.506;5.486;2024-03-23T08:54:56;9.60;60.10
78876;DHT22;68253;52.506;5.486;2024-03-23T08:57:23;10.00;60.00
78876;DHT22;68253;52.506;5.486;2024-03-23T08:59:50;10.20;59.60
78876;DHT22;68253;52.506;5.486;2024-03-23T09:02:16;10.20;59.00
78876;DHT22;68253;52.506;5.486;2024-03-23T09:04:42;10.20;58.60
78876;DHT22;68253;52.506;5.486;2024-03-23T09:07:08;10.40;58.00
78876;DHT22;68253;52.506;5.486;2024-03-23T09:09:34;10.70;57.70
78876;DHT22;68253;52.506;5.486;2024-03-23T09:12:00;11.10;57.10
78876;DHT22;68253;52.506;5.486;2024-03-23T09:14:26;11.10;56.80
78876;DHT22;68253;52.506;5.486;2024-03-23T09:16:53;11.30;56.60
78876;DHT22;68253;52.506;5.486;2024-03-23T09:19:19;11.50;56.30
78876;DHT22;68253;52.506;5.486;2024-03-23T09:21:45;11.80;56.00
78876;DHT22;68253;52.506;5.486;2024-03-23T09:24:12;12.00;55.30
78876;DHT22;68253;52.506;5.486;2024-03-23T09:26:38;11.80;54.70
78876;DHT22;68253;52.506;5.486;2024-03-23T09:29:04;11.20;55.20
78876;DHT22;68253;52.506;5.486;2024-03-23T09:31:30;10.70;55.60
78876;DHT22;68253;52.506;5.486;2024-03-23T09:33:58;10.30;55.60
78876;DHT22;68253;52.506;5.486;2024-03-23T09:36:24;9.90;55.90
78876;DHT22;68253;52.506;5.486;2024-03-23T09:38:50;9.90;57.30
78876;DHT22;68253;52.506;5.486;2024-03-23T09:41:16;10.20;57.40
78876;DHT22;68253;52.506;5.486;2024-03-23T09:43:42;10.70;56.50
78876;DHT22;68253;52.506;5.486;2024-03-23T09:46:09;11.10;56.70
78876;DHT22;68253;52.506;5.486;2024-03-23T09:48:36;11.50;56.60
78876;DHT22;68253;52.506;5.486;2024-03-23T09:51:02;11.70;56.20
78876;DHT22;68253;52.506;5.486;2024-03-23T09:53:28;11.70;56.40
78876;DHT22;68253;52.506;5.486;2024-03-23T09:55:55;11.40;56.90
78876;DHT22;68253;52.506;5.486;2024-03-23T09:58:23;11.30;57.40
78876;DHT22;68253;52.506;5.486;2024-03-23T10:00:50;11.50;57.90
78876;DHT22;68253;52.506;5.486;2024-03-23T10:03:16;11.90;57.40
78876;DHT22;68253;52.506;5.486;2024-03-23T10:05:42;12.30;56.40
78876;DHT22;68253;52.506;5.486;2024-03-23T10:10:42;12.10;54.20
78876;DHT22;68253;52.506;5.486;2024-03-23T10:13:08;11.60;55.20
78876;DHT22;68253;52.506;5.486;2024-03-23T10:15:35;11.40;56.40
78876;DHT22;68253;52.506;5.486;2024-03-23T10:18:20;11.40;55.40
78876;DHT22;68253;52.506;5.486;2024-03-23T10:20:52;11.40;55.30
78876;DHT22;68253;52.506;5.486;2024-03-23T10:23:26;11.50;55.80
78876;DHT22;68253;52.506;5.486;2024-03-23T10:25:52;11.50;55.40
78876;DHT22;68253;52.506;5.486;2024-03-23T10:28:18;11.30;55.20
78876;DHT22;68253;52.506;5.486;2024-03-23T10:30:44;11.10;55.10
78876;DHT22;68253;52.506;5.486;2024-03-23T10:33:11;10.80;55.20
78876;DHT22;68253;52.506;5.486;2024-03-23T10:35:38;10.50;55.50
78876;DHT22;68253;52.506;5.486;2024-03-23T10:38:07;10.30;56.10
78876;DHT22;68253;52.506;5.486;2024-03-23T10:40:37;10.10;56.80
78876;DHT22;68253;52.506;5.486;2024-03-23T10:43:03;10.20;57.60
78876;DHT22;68253;52.506;5.486;2024-03-23T10:45:31;10.30;57.20
78876;DHT22;68253;52.506;5.486;2024-03-23T10:47:57;10.20;57.60
78876;DHT22;68253;52.506;5.486;2024-03-23T10:50:23;10.10;57.20
78876;DHT22;68253;52.506;5.486;2024-03-23T10:52:49;10.00;57.80
78876;DHT22;68253;52.506;5.486;2024-03-23T10:55:19;10.10;58.90
78876;DHT22;68253;52.506;5.486;2024-03-23T10:57:52;10.30;58.90
78876;DHT22;68253;52.506;5.486;2024-03-23T11:00:19;10.30;58.40
78876;DHT22;68253;52.506;5.486;2024-03-23T11:02:48;10.20;58.60
78876;DHT22;68253;52.506;5.486;2024-03-23T11:07:53;10.00;58.70
78876;DHT22;68253;52.506;5.486;2024-03-23T11:10:37;9.80;59.10
78876;DHT22;68253;52.506;5.486;2024-03-23T11:13:22;9.80;60.00
78876;DHT22;68253;52.506;5.486;2024-03-23T11:15:49;9.70;59.30
78876;DHT22;68253;52.506;5.486;2024-03-23T11:18:20;9.70;60.10
78876;DHT22;68253;52.506;5.486;2024-03-23T11:20:47;9.80;60.00
78876;DHT22;68253;52.506;5.486;2024-03-23T11:23:28;10.10;60.20
78876;DHT22;68253;52.506;5.486;2024-03-23T11:25:54;10.60;59.90
78876;DHT22;68253;52.506;5.486;2024-03-23T11:28:20;11.00;59.30
78876;DHT22;68253;52.506;5.486;2024-03-23T11:30:47;11.00;58.70
78876;DHT22;68253;52.506;5.486;2024-03-23T11:33:14;10.90;58.00
78876;DHT22;68253;52.506;5.486;2024-03-23T11:35:41;10.80;58.70
78876;DHT22;68253;52.506;5.486;2024-03-23T11:38:15;10.80;58.20
78876;DHT22;68253;52.506;5.486;2024-03-23T11:40:43;11.00;57.90
78876;DHT22;68253;52.506;5.486;2024-03-23T11:43:12;11.30;56.40
78876;DHT22;68253;52.506;5.486;2024-03-23T11:45:40;11.00;54.90
78876;DHT22;68253;52.506;5.486;2024-03-23T11:48:14;10.80;54.80
78876;DHT22;68253;52.506;5.486;2024-03-23T11:50:44;10.50;55.70
78876;DHT22;68253;52.506;5.486;2024-03-23T11:53:18;10.20;56.80
78876;DHT22;68253;52.506;5.486;2024-03-23T11:55:57;10.00;57.50
78876;DHT22;68253;52.506;5.486;2024-03-23T11:58:25;9.80;58.30
78876;DHT22;68253;52.506;5.486;2024-03-23T12:00:59;9.70;59.30
78876;DHT22;68253;52.506;5.486;2024-03-23T12:03:26;9.70;60.00
78876;DHT22;68253;52.506;5.486;2024-03-23T12:05:55;9.40;59.60
78876;DHT22;68253;52.506;5.486;2024-03-23T12:08:32;9.20;59.90
78876;DHT22;68253;52.506;5.486;2024-03-23T12:11:11;9.00;60.90
78876;DHT22;68253;52.506;5.486;2024-03-23T12:13:39;8.80;61.20
78876;DHT22;68253;52.506;5.486;2024-03-23T12:16:15;8.60;61.00
78876;DHT22;68253;52.506;5.486;2024-03-23T12:18:43;8.30;61.30
78876;DHT22;68253;52.506;5.486;2024-03-23T12:21:10;8.20;62.20
78876;DHT22;68253;52.506;5.486;2024-03-23T12:23:39;8.10;63.50
78876;DHT22;68253;52.506;5.486;2024-03-23T12:26:05;8.60;64.50
78876;DHT22;68253;52.506;5.486;2024-03-23T12:28:32;9.20;63.60
78876;DHT22;68253;52.506;5.486;2024-03-23T12:30:58;9.50;62.70
78876;DHT22;68253;52.506;5.486;2024-03-23T12:33:24;9.70;63.00
78876;DHT22;68253;52.506;5.486;2024-03-23T12:35:51;10.00;62.10
78876;DHT22;68253;52.506;5.486;2024-03-23T12:38:17;10.20;61.40
78876;DHT22;68253;52.506;5.486;2024-03-23T12:40:47;10.20;61.20
78876;DHT22;68253;52.506;5.486;2024-03-23T12:43:17;10.30;61.20
78876;DHT22;68253;52.506;5.486;2024-03-23T12:45:49;10.50;60.50
78876;DHT22;68253;52.506;5.486;2024-03-23T12:48:19;10.40;60.90
78876;DHT22;68253;52.506;5.486;2024-03-23T12:50:45;10.40;62.10
78876;DHT22;68253;52.506;5.486;2024-03-23T12:53:11;10.60;62.80
78876;DHT22;68253;52.506;5.486;2024-03-23T12:55:37;10.90;62.30
78876;DHT22;68253;52.506;5.486;2024-03-23T12:58:03;10.90;61.10
78876;DHT22;68253;52.506;5.486;2024-03-23T13:00:30;10.80;61.30
78876;DHT22;68253;52.506;5.486;2024-03-23T13:02:56;10.70;61.90
78876;DHT22;68253;52.506;5.486;2024-03-23T13:05:22;11.00;61.50
78876;DHT22;68253;52.506;5.486;2024-03-23T13:07:48;11.10;59.70
78876;DHT22;68253;52.506;5.486;2024-03-23T13:10:15;11.30;59.00
78876;DHT22;68253;52.506;5.486;2024-03-23T13:12:41;11.30;58.40
78876;DHT22;68253;52.506;5.486;2024-03-23T13:15:09;11.00;58.00
78876;DHT22;68253;52.506;5.486;2024-03-23T13:17:35;10.80;58.70
78876;DHT22;68253;52.506;5.486;2024-03-23T13:20:01;10.80;59.40
78876;DHT22;68253;52.506;5.486;2024-03-23T13:22:27;10.60;58.10
78876;DHT22;68253;52.506;5.486;2024-03-23T13:24:54;10.30;59.10
78876;DHT22;68253;52.506;5.486;2024-03-23T13:27:20;10.20;59.70
78876;DHT22;68253;52.506;5.486;2024-03-23T13:29:46;10.00;59.00
78876;DHT22;68253;52.506;5.486;2024-03-23T13:32:13;9.70;59.80
78876;DHT22;68253;52.506;5.486;2024-03-23T13:34:39;9.50;61.00
78876;DHT22;68253;52.506;5.486;2024-03-23T13:37:06;9.50;61.90
78876;DHT22;68253;52.506;5.486;2024-03-23T13:39:33;9.50;61.90
78876;DHT22;68253;52.506;5.486;2024-03-23T13:41:59;9.50;61.60
78876;DHT22;68253;52.506;5.486;2024-03-23T13:44:25;9.60;60.70
78876;DHT22;68253;52.506;5.486;2024-03-23T13:46:52;10.10;59.10
78876;DHT22;68253;52.506;5.486;2024-03-23T13:49:27;10.60;58.10
78876;DHT22;68253;52.506;5.486;2024-03-23T13:51:54;11.00;56.70
78876;DHT22;68253;52.506;5.486;2024-03-23T13:54:20;11.30;55.70
78876;DHT22;68253;52.506;5.486;2024-03-23T13:56:56;11.50;56.00
78876;DHT22;68253;52.506;5.486;2024-03-23T13:59:23;11.90;56.30
78876;DHT22;68253;52.506;5.486;2024-03-23T14:01:49;12.20;54.20
78876;DHT22;68253;52.506;5.486;2024-03-23T14:04:17;12.10;53.60
78876;DHT22;68253;52.506;5.486;2024-03-23T14:06:45;11.90;54.80
78876;DHT22;68253;52.506;5.486;2024-03-23T14:09:12;11.50;55.50
78876;DHT22;68253;52.506;5.486;2024-03-23T14:11:38;11.30;57.20
78876;DHT22;68253;52.506;5.486;2024-03-23T14:14:06;11.40;57.10
78876;DHT22;68253;52.506;5.486;2024-03-23T14:16:32;11.60;56.60
78876;DHT22;68253;52.506;5.486;2024-03-23T14:18:59;12.00;55.50
78876;DHT22;68253;52.506;5.486;2024-03-23T14:21:25;12.30;53.90
78876;DHT22;68253;52.506;5.486;2024-03-23T14:23:51;12.50;53.60
78876;DHT22;68253;52.506;5.486;2024-03-23T14:26:17;12.50;53.50
78876;DHT22;68253;52.506;5.486;2024-03-23T14:28:44;12.30;53.10
78876;DHT22;68253;52.506;5.486;2024-03-23T14:31:10;12.20;53.00
78876;DHT22;68253;52.506;5.486;2024-03-23T14:33:37;11.90;53.10
78876;DHT22;68253;52.506;5.486;2024-03-23T14:36:05;11.60;52.90
78876;DHT22;68253;52.506;5.486;2024-03-23T14:38:31;11.30;53.10
78876;DHT22;68253;52.506;5.486;2024-03-23T14:41:00;11.00;54.10
78876;DHT22;68253;52.506;5.486;2024-03-23T14:43:29;10.70;55.60
78876;DHT22;68253;52.506;5.486;2024-03-23T14:46:14;10.30;56.70
78876;DHT22;68253;52.506;5.486;2024-03-23T14:48:43;9.90;58.60
78876;DHT22;68253;52.506;5.486;2024-03-23T14:51:10;9.50;59.50
78876;DHT22;68253;52.506;5.486;2024-03-23T14:53:40;9.10;59.70
78876;DHT22;68253;52.506;5.486;2024-03-23T14:56:08;8.90;60.70
78876;DHT22;68253;52.506;5.486;2024-03-23T14:58:35;8.90;61.30
78876;DHT22;68253;52.506;5.486;2024-03-23T15:01:05;8.90;61.50
78876;DHT22;68253;52.506;5.486;2024-03-23T15:03:38;8.90;61.80
78876;DHT22;68253;52.506;5.486;2024-03-23T15:06:09;8.80;61.10
78876;DHT22;68253;52.506;5.486;2024-03-23T15:08:35;8.60;61.70
78876;DHT22;68253;52.506;5.486;2024-03-23T15:11:03;8.40;62.30
78876;DHT22;68253;52.506;5.486;2024-03-23T15:13:35;8.30;62.90
78876;DHT22;68253;52.506;5.486;2024-03-23T15:16:01;8.10;63.70
78876;DHT22;68253;52.506;5.486;2024-03-23T15:18:30;8.00;63.70
78876;DHT22;68253;52.506;5.486;2024-03-23T15:20:57;7.80;63.80
78876;DHT22;68253;52.506;5.486;2024-03-23T15:23:24;7.70;63.90
78876;DHT22;68253;52.506;5.486;2024-03-23T15:26:00;7.60;64.10
78876;DHT22;68253;52.506;5.486;2024-03-23T15:28:27;7.60;64.00
78876;DHT22;68253;52.506;5.486;2024-03-23T15:31:08;7.70;64.70
78876;DHT22;68253;52.506;5.486;2024-03-23T15:33:35;7.80;64.00
78876;DHT22;68253;52.506;5.486;2024-03-23T15:36:03;7.80;63.50
78876;DHT22;68253;52.506;5.486;2024-03-23T15:38:31;7.80;63.80
78876;DHT22;68253;52.506;5.486;2024-03-23T15:40:58;8.00;64.00
78876;DHT22;68253;52.506;5.486;2024-03-23T15:43:24;8.20;64.40
78876;DHT22;68253;52.506;5.486;2024-03-23T15:45:57;8.30;64.20
78876;DHT22;68253;52.506;5.486;2024-03-23T15:48:27;8.40;64.00
78876;DHT22;68253;52.506;5.486;2024-03-23T15:50:54;8.50;64.10
78876;DHT22;68253;52.506;5.486;2024-03-23T15:53:21;8.70;63.90
78876;DHT22;68253;52.506;5.486;2024-03-23T15:58:21;8.90;62.20
78876;DHT22;68253;52.506;5.486;2024-03-23T16:00:57;8.90;62.20
78876;DHT22;68253;52.506;5.486;2024-03-23T16:03:24;8.90;61.60
78876;DHT22;68253;52.506;5.486;2024-03-23T16:05:54;9.00;59.20
78876;DHT22;68253;52.506;5.486;2024-03-23T16:08:20;8.90;59.70
78876;DHT22;68253;52.506;5.486;2024-03-23T16:10:47;8.80;59.40
78876;DHT22;68253;52.506;5.486;2024-03-23T16:13:13;8.60;60.10
78876;DHT22;68253;52.506;5.486;2024-03-23T16:15:40;8.60;60.10
78876;DHT22;68253;52.506;5.486;2024-03-23T16:18:06;8.50;60.80
78876;DHT22;68253;52.506;5.486;2024-03-23T16:20:33;8.40;62.00
78876;DHT22;68253;52.506;5.486;2024-03-23T16:23:00;8.10;62.10
78876;DHT22;68253;52.506;5.486;2024-03-23T16:25:26;7.80;63.40
78876;DHT22;68253;52.506;5.486;2024-03-23T16:27:53;7.60;64.00
78876;DHT22;68253;52.506;5.486;2024-03-23T16:30:20;7.50;64.70
78876;DHT22;68253;52.506;5.486;2024-03-23T16:32:47;7.50;65.50
78876;DHT22;68253;52.506;5.486;2024-03-23T16:35:13;7.50;65.80
78876;DHT22;68253;52.506;5.486;2024-03-23T16:37:40;7.50;66.50
78876;DHT22;68253;52.506;5.486;2024-03-23T16:40:06;7.50;66.50
78876;DHT22;68253;52.506;5.486;2024-03-23T16:42:35;7.50;66.10